createdAt,value
2018-01-02T00:00:49.322Z,87.38
2018-01-02T00:01:49.337Z,87.86
2018-01-02T00:02:49.352Z,88.34
2018-01-02T00:03:49.366Z,87.86
2018-01-02T00:04:49.381Z,88.43
2018-01-02T00:05:49.393Z,88.10
2018-01-02T00:06:49.410Z,87.76
2018-01-02T00:07:49.425Z,87.76
2018-01-02T00:08:49.442Z,87.86
2018-01-02T00:09:49.455Z,87.53
2018-01-02T00:10:49.473Z,87.82
2018-01-02T00:11:49.486Z,87.01
2018-01-02T00:12:49.499Z,87.10
2018-01-02T00:13:49.514Z,86.82
2018-01-02T00:14:49.530Z,86.72
2018-01-02T00:15:49.545Z,86.91
2018-01-02T00:16:49.560Z,87.62
2018-01-02T00:17:49.573Z,87.72
2018-01-02T00:18:49.588Z,87.43
2018-01-02T00:19:49.606Z,87.38
2018-01-02T00:20:49.620Z,87.19
2018-01-02T00:21:49.633Z,87.10
2018-01-02T00:22:49.644Z,87.91
2018-01-02T00:23:49.661Z,88.10
2018-01-02T00:24:49.677Z,87.82
2018-01-02T00:25:49.691Z,87.91
2018-01-02T00:26:49.710Z,88.20
2018-01-02T00:27:49.723Z,88.20
2018-01-02T00:28:49.736Z,88.29
2018-01-02T00:29:49.762Z,88.29
2018-01-02T00:30:49.763Z,88.48
2018-01-02T00:31:49.778Z,88.57
2018-01-02T00:32:49.793Z,88.57
2018-01-02T00:33:49.808Z,88.86
2018-01-02T00:34:49.824Z,88.39
2018-01-02T00:35:49.837Z,88.01
2018-01-02T00:36:49.855Z,88.01
2018-01-02T00:37:49.868Z,88.76
2018-01-02T00:38:49.882Z,88.39
2018-01-02T00:39:49.895Z,88.67
2018-01-02T00:40:49.911Z,88.57
2018-01-02T00:41:49.923Z,88.01
2018-01-02T00:42:49.943Z,88.01
2018-01-02T00:43:49.955Z,87.91
2018-01-02T00:44:49.968Z,87.48
2018-01-02T00:45:49.981Z,87.48
2018-01-02T00:46:49.997Z,87.86
2018-01-02T00:47:50.011Z,87.53
2018-01-02T00:48:50.029Z,88.86
2018-01-02T00:49:50.042Z,89.53
2018-01-02T00:50:50.055Z,89.14
2018-01-02T00:51:50.079Z,88.48
2018-01-02T00:52:50.088Z,88.10
2018-01-02T00:53:50.097Z,87.91
2018-01-02T00:54:50.112Z,87.91
2018-01-02T00:55:50.130Z,88.48
2018-01-02T00:56:50.144Z,88.39
2018-01-02T00:57:50.165Z,88.95
2018-01-02T00:58:50.174Z,88.86
2018-01-02T00:59:50.189Z,88.95
2018-01-02T01:00:50.202Z,88.29
2018-01-02T01:01:50.220Z,88.24
2018-01-02T01:02:50.230Z,88.43
2018-01-02T01:03:50.245Z,88.20
2018-01-02T01:04:50.268Z,88.20
2018-01-02T01:05:50.275Z,88.95
2018-01-02T01:06:50.290Z,89.24
2018-01-02T01:07:50.304Z,89.53
2018-01-02T01:08:50.318Z,89.62
2018-01-02T01:09:50.332Z,90.00
2018-01-02T01:10:50.346Z,89.62
2018-01-02T01:11:50.362Z,89.90
2018-01-02T01:12:50.377Z,89.81
2018-01-02T01:13:50.392Z,89.62
2018-01-02T01:14:50.405Z,89.90
2018-01-02T01:15:50.421Z,89.24
2018-01-02T01:16:50.436Z,89.43
2018-01-02T01:17:50.448Z,89.33
2018-01-02T01:18:50.468Z,88.95
2018-01-02T01:19:50.478Z,88.48
2018-01-02T01:20:50.494Z,89.33
2018-01-02T01:21:50.506Z,89.53
2018-01-02T01:22:50.520Z,89.72
2018-01-02T01:23:50.535Z,90.09
2018-01-02T01:24:50.554Z,89.72
2018-01-02T01:25:50.566Z,90.38
2018-01-02T01:26:50.579Z,90.28
2018-01-02T01:27:50.596Z,89.43
2018-01-02T01:28:50.610Z,88.57
2018-01-02T01:29:50.623Z,88.39
2018-01-02T01:30:50.640Z,88.39
2018-01-02T01:31:50.656Z,88.24
2018-01-02T01:32:50.669Z,88.57
2018-01-02T01:33:50.682Z,89.90
2018-01-02T01:34:50.695Z,90.47
2018-01-02T01:35:50.712Z,90.66
2018-01-02T01:36:50.726Z,89.81
2018-01-02T01:37:50.741Z,89.90
2018-01-02T01:38:50.753Z,90.28
2018-01-02T01:39:50.770Z,89.28
2018-01-02T01:40:50.792Z,89.33
2018-01-02T01:41:50.799Z,89.81
2018-01-02T01:42:50.810Z,89.62
2018-01-02T01:43:50.826Z,89.14
2018-01-02T01:44:50.840Z,88.53
2018-01-02T01:45:50.856Z,88.81
2018-01-02T01:46:50.870Z,88.81
2018-01-02T01:47:50.887Z,89.05
2018-01-02T01:48:50.903Z,88.76
2018-01-02T01:49:50.913Z,89.33
2018-01-02T01:50:50.927Z,89.72
2018-01-02T01:51:50.943Z,89.62
2018-01-02T01:52:50.957Z,89.72
2018-01-02T01:53:50.970Z,90.09
2018-01-02T01:54:50.985Z,89.90
2018-01-02T01:55:51.002Z,90.00
2018-01-02T01:56:51.015Z,89.14
2018-01-02T01:57:51.026Z,89.05
2018-01-02T01:58:51.045Z,89.90
2018-01-02T01:59:51.060Z,89.72
2018-01-02T02:00:51.070Z,89.90
2018-01-02T02:01:51.086Z,90.09
2018-01-02T02:02:51.101Z,90.09
2018-01-02T02:03:51.116Z,90.66
2018-01-02T02:04:51.131Z,90.19
2018-01-02T02:05:51.144Z,89.53
2018-01-02T02:06:51.157Z,89.24
2018-01-02T02:07:51.174Z,89.24
2018-01-02T02:08:51.185Z,89.24
2018-01-02T02:09:51.200Z,89.05
2018-01-02T02:10:51.213Z,89.33
2018-01-02T02:11:51.230Z,89.19
2018-01-02T02:12:51.246Z,89.05
2018-01-02T02:13:51.258Z,90.00
2018-01-02T02:14:51.271Z,90.09
2018-01-02T02:15:51.290Z,89.90
2018-01-02T02:16:51.301Z,89.33
2018-01-02T02:17:51.315Z,89.53
2018-01-02T02:18:51.330Z,89.72
2018-01-02T02:19:51.346Z,90.76
2018-01-02T02:20:51.360Z,90.28
2018-01-02T02:21:51.375Z,89.81
2018-01-02T02:22:51.390Z,89.62
2018-01-02T02:23:51.404Z,88.95
2018-01-02T02:24:51.418Z,88.76
2018-01-02T02:25:51.434Z,88.95
2018-01-02T02:26:51.445Z,89.53
2018-01-02T02:27:51.461Z,89.33
2018-01-02T02:28:51.482Z,89.24
2018-01-02T02:29:51.488Z,88.81
2018-01-02T02:30:51.501Z,88.43
2018-01-02T02:31:51.515Z,88.05
2018-01-02T02:32:51.534Z,89.05
2018-01-02T02:33:51.546Z,89.72
2018-01-02T02:34:51.562Z,89.72
2018-01-02T02:35:51.577Z,89.24
2018-01-02T02:36:51.592Z,88.95
2018-01-02T02:37:51.605Z,89.24
2018-01-02T02:38:51.618Z,89.05
2018-01-02T02:39:51.636Z,88.95
2018-01-02T02:40:51.648Z,88.95
2018-01-02T02:41:51.662Z,89.24
2018-01-02T02:42:51.741Z,88.86
2018-01-02T02:43:51.693Z,89.90
2018-01-02T02:44:51.706Z,90.85
2018-01-02T02:45:51.723Z,90.85
2018-01-02T02:46:51.735Z,91.94
2018-01-02T02:47:51.754Z,92.09
2018-01-02T02:48:51.765Z,91.61
2018-01-02T02:49:51.777Z,91.24
2018-01-02T02:50:51.791Z,91.33
2018-01-02T02:51:51.808Z,90.47
2018-01-02T02:52:51.827Z,91.14
2018-01-02T02:53:51.835Z,91.61
2018-01-02T02:54:51.849Z,92.61
2018-01-02T02:55:51.864Z,93.46
2018-01-02T02:56:51.879Z,93.04
2018-01-02T02:57:51.896Z,92.94
2018-01-02T02:58:51.906Z,91.99
2018-01-02T02:59:51.920Z,91.42
2018-01-02T03:00:51.937Z,91.61
2018-01-02T03:01:51.956Z,91.80
2018-01-02T03:02:51.963Z,91.42
2018-01-02T03:03:51.978Z,91.24
2018-01-02T03:04:51.993Z,91.52
2018-01-02T03:05:52.013Z,91.33
2018-01-02T03:06:52.023Z,92.52
2018-01-02T03:07:52.048Z,93.27
2018-01-02T03:08:52.050Z,92.85
2018-01-02T03:09:52.064Z,92.75
2018-01-02T03:10:52.080Z,93.32
2018-01-02T03:11:52.093Z,92.94
2018-01-02T03:12:52.108Z,92.66
2018-01-02T03:13:52.124Z,91.99
2018-01-02T03:14:52.139Z,92.37
2018-01-02T03:15:52.162Z,92.28
2018-01-02T03:16:52.164Z,91.89
2018-01-02T03:17:52.182Z,91.33
2018-01-02T03:18:52.192Z,91.24
2018-01-02T03:19:52.207Z,91.52
2018-01-02T03:20:52.224Z,91.52
2018-01-02T03:21:52.236Z,91.99
2018-01-02T03:22:52.252Z,91.80
2018-01-02T03:23:52.266Z,91.71
2018-01-02T03:24:52.280Z,90.95
2018-01-02T03:25:52.298Z,90.76
2018-01-02T03:26:52.309Z,90.00
2018-01-02T03:27:52.322Z,90.76
2018-01-02T03:28:52.339Z,90.85
2018-01-02T03:29:52.354Z,91.04
2018-01-02T03:30:52.367Z,91.24
2018-01-02T03:31:52.380Z,90.85
2018-01-02T03:32:52.397Z,92.09
2018-01-02T03:33:52.411Z,92.28
2018-01-02T03:34:52.422Z,91.42
2018-01-02T03:35:52.437Z,91.33
2018-01-02T03:36:52.454Z,90.95
2018-01-02T03:37:52.471Z,91.42
2018-01-02T03:38:52.484Z,90.66
2018-01-02T03:39:52.495Z,90.85
2018-01-02T03:40:52.512Z,90.28
2018-01-02T03:41:52.525Z,90.38
2018-01-02T03:42:52.539Z,89.81
2018-01-02T03:43:52.555Z,90.00
2018-01-02T03:44:52.567Z,90.57
2018-01-02T03:45:52.582Z,90.57
2018-01-02T03:46:52.598Z,91.24
2018-01-02T03:47:52.610Z,90.76
2018-01-02T03:48:52.625Z,89.86
2018-01-02T03:49:52.640Z,90.19
2018-01-02T03:50:52.654Z,90.38
2018-01-02T03:51:52.673Z,90.00
2018-01-02T03:52:52.683Z,89.72
2018-01-02T03:53:52.697Z,90.09
2018-01-02T03:54:52.711Z,90.28
2018-01-02T03:55:52.726Z,90.28
2018-01-02T03:56:52.743Z,90.28
2018-01-02T03:57:52.756Z,90.47
2018-01-02T03:58:52.772Z,90.76
2018-01-02T03:59:52.784Z,90.85
2018-01-02T04:00:52.798Z,90.76
2018-01-02T04:01:52.811Z,91.14
2018-01-02T04:02:52.834Z,90.95
2018-01-02T04:03:52.843Z,91.52
2018-01-02T04:04:52.858Z,91.99
2018-01-02T04:05:52.868Z,91.33
2018-01-02T04:06:52.882Z,91.04
2018-01-02T04:07:52.899Z,90.76
2018-01-02T04:08:52.913Z,90.76
2018-01-02T04:09:52.930Z,90.57
2018-01-02T04:10:52.943Z,91.14
2018-01-02T04:11:52.956Z,90.38
2018-01-02T04:12:52.970Z,91.04
2018-01-02T04:13:52.982Z,91.24
2018-01-02T04:14:53.000Z,91.24
2018-01-02T04:15:53.012Z,90.66
2018-01-02T04:16:53.029Z,90.28
2018-01-02T04:17:53.043Z,90.76
2018-01-02T04:18:53.057Z,90.85
2018-01-02T04:19:53.071Z,90.38
2018-01-02T04:20:53.084Z,90.00
2018-01-02T04:21:53.103Z,90.66
2018-01-02T04:22:53.113Z,90.38
2018-01-02T04:23:53.126Z,90.66
2018-01-02T04:24:53.166Z,90.76
2018-01-02T04:25:53.157Z,90.19
2018-01-02T04:26:53.170Z,90.47
2018-01-02T04:27:53.184Z,89.90
2018-01-02T04:28:53.200Z,89.81
2018-01-02T04:29:53.217Z,90.19
2018-01-02T04:30:53.231Z,89.53
2018-01-02T04:31:53.244Z,89.90
2018-01-02T04:32:53.258Z,90.38
2018-01-02T04:33:53.270Z,91.61
2018-01-02T04:34:53.283Z,91.89
2018-01-02T04:35:53.300Z,91.14
2018-01-02T04:36:53.400Z,90.66
2018-01-02T04:37:53.329Z,90.66
2018-01-02T04:38:53.342Z,91.14
2018-01-02T04:39:53.355Z,91.24
2018-01-02T04:40:53.377Z,91.99
2018-01-02T04:41:53.382Z,92.37
2018-01-02T04:42:53.404Z,92.56
2018-01-02T04:43:53.413Z,92.37
2018-01-02T04:44:53.426Z,92.09
2018-01-02T04:45:53.440Z,91.61
2018-01-02T04:46:53.457Z,92.37
2018-01-02T04:47:53.470Z,93.23
2018-01-02T04:48:53.484Z,92.75
2018-01-02T04:49:53.498Z,93.32
2018-01-02T04:50:53.513Z,93.13
2018-01-02T04:51:53.525Z,92.85
2018-01-02T04:52:53.541Z,92.75
2018-01-02T04:53:53.556Z,91.99
2018-01-02T04:54:53.574Z,92.66
2018-01-02T04:55:53.583Z,92.66
2018-01-02T04:56:53.597Z,91.89
2018-01-02T04:57:53.610Z,92.47
2018-01-02T04:58:53.626Z,91.99
2018-01-02T04:59:53.641Z,91.99
2018-01-02T05:00:53.653Z,91.89
2018-01-02T05:01:53.669Z,91.71
2018-01-02T05:02:53.686Z,92.09
2018-01-02T05:03:53.695Z,91.71
2018-01-02T05:04:53.713Z,92.09
2018-01-02T05:05:53.724Z,91.33
2018-01-02T05:06:53.738Z,91.42
2018-01-02T05:07:53.754Z,91.14
2018-01-02T05:08:53.768Z,91.61
2018-01-02T05:09:53.782Z,92.09
2018-01-02T05:10:53.802Z,91.89
2018-01-02T05:11:53.811Z,91.24
2018-01-02T05:12:53.828Z,91.42
2018-01-02T05:13:53.839Z,91.42
2018-01-02T05:14:53.854Z,91.09
2018-01-02T05:15:53.868Z,90.85
2018-01-02T05:16:53.886Z,90.99
2018-01-02T05:17:53.897Z,91.28
2018-01-02T05:18:53.912Z,90.85
2018-01-02T05:19:53.926Z,91.04
2018-01-02T05:20:53.942Z,91.04
2018-01-02T05:21:53.960Z,91.28
2018-01-02T05:22:53.973Z,91.28
2018-01-02T05:23:53.986Z,91.24
2018-01-02T05:24:53.999Z,92.37
2018-01-02T05:25:54.012Z,93.04
2018-01-02T05:26:54.029Z,92.28
2018-01-02T05:27:54.041Z,92.09
2018-01-02T05:28:54.055Z,91.56
2018-01-02T05:29:54.072Z,90.95
2018-01-02T05:30:54.089Z,90.99
2018-01-02T05:31:54.100Z,91.09
2018-01-02T05:32:54.119Z,90.95
2018-01-02T05:33:54.127Z,91.19
2018-01-02T05:34:54.146Z,90.71
2018-01-02T05:35:54.159Z,90.80
2018-01-02T05:36:54.172Z,90.71
2018-01-02T05:37:54.185Z,90.80
2018-01-02T05:38:54.200Z,90.80
2018-01-02T05:39:54.218Z,90.80
2018-01-02T05:40:54.231Z,90.99
2018-01-02T05:41:54.242Z,91.24
2018-01-02T05:42:54.261Z,91.28
2018-01-02T05:43:54.274Z,91.56
2018-01-02T05:44:54.289Z,91.61
2018-01-02T05:45:54.306Z,91.71
2018-01-02T05:46:54.321Z,91.52
2018-01-02T05:47:54.333Z,91.89
2018-01-02T05:48:54.349Z,92.47
2018-01-02T05:49:54.361Z,91.89
2018-01-02T05:50:54.376Z,91.38
2018-01-02T05:51:54.391Z,91.09
2018-01-02T05:52:54.406Z,90.52
2018-01-02T05:53:54.416Z,90.90
2018-01-02T05:54:54.440Z,91.09
2018-01-02T05:55:54.449Z,90.61
2018-01-02T05:56:54.465Z,90.80
2018-01-02T05:57:54.478Z,91.28
2018-01-02T05:58:54.495Z,90.99
2018-01-02T05:59:54.508Z,91.42
2018-01-02T06:00:54.521Z,91.52
2018-01-02T06:01:54.537Z,92.09
2018-01-02T06:02:54.548Z,92.37
2018-01-02T06:03:54.565Z,92.37
2018-01-02T06:04:54.604Z,92.18
2018-01-02T06:05:54.603Z,92.09
2018-01-02T06:06:54.608Z,92.66
2018-01-02T06:07:54.624Z,92.37
2018-01-02T06:08:54.641Z,92.32
2018-01-02T06:09:54.650Z,91.66
2018-01-02T06:10:54.666Z,91.28
2018-01-02T06:11:54.680Z,91.71
2018-01-02T06:12:54.696Z,92.09
2018-01-02T06:13:54.711Z,92.61
2018-01-02T06:14:54.723Z,91.66
2018-01-02T06:15:54.740Z,90.71
2018-01-02T06:16:54.759Z,91.52
2018-01-02T06:17:54.770Z,91.99
2018-01-02T06:18:54.786Z,91.47
2018-01-02T06:19:54.801Z,91.28
2018-01-02T06:20:54.816Z,91.19
2018-01-02T06:21:54.830Z,91.28
2018-01-02T06:22:54.845Z,90.99
2018-01-02T06:23:54.864Z,91.52
2018-01-02T06:24:54.872Z,92.09
2018-01-02T06:25:54.888Z,92.37
2018-01-02T06:26:54.904Z,92.71
2018-01-02T06:27:54.917Z,91.28
2018-01-02T06:28:54.932Z,91.47
2018-01-02T06:29:54.947Z,91.28
2018-01-02T06:30:54.964Z,91.75
2018-01-02T06:31:54.975Z,91.85
2018-01-02T06:32:54.989Z,91.42
2018-01-02T06:33:55.001Z,92.09
2018-01-02T06:34:55.017Z,91.38
2018-01-02T06:35:55.033Z,91.42
2018-01-02T06:36:55.048Z,91.28
2018-01-02T06:37:55.061Z,91.42
2018-01-02T06:38:55.073Z,91.28
2018-01-02T06:39:55.091Z,90.42
2018-01-02T06:40:55.102Z,89.95
2018-01-02T06:41:55.119Z,89.95
2018-01-02T06:42:55.132Z,89.76
2018-01-02T06:43:55.148Z,90.14
2018-01-02T06:44:55.161Z,90.14
2018-01-02T06:45:55.178Z,89.57
2018-01-02T06:46:55.191Z,89.67
2018-01-02T06:47:55.207Z,89.57
2018-01-02T06:48:55.222Z,90.14
2018-01-02T06:49:55.237Z,89.38
2018-01-02T06:50:55.250Z,89.28
2018-01-02T06:51:55.266Z,89.28
2018-01-02T06:52:55.279Z,89.95
2018-01-02T06:53:55.293Z,90.05
2018-01-02T06:54:55.310Z,89.95
2018-01-02T06:55:55.322Z,89.76
2018-01-02T06:56:55.338Z,90.14
2018-01-02T06:57:55.351Z,90.05
2018-01-02T06:58:55.369Z,89.33
2018-01-02T06:59:55.382Z,89.09
2018-01-02T07:00:55.397Z,88.90
2018-01-02T07:01:55.412Z,88.71
2018-01-02T07:02:55.423Z,89.19
2018-01-02T07:03:55.440Z,89.76
2018-01-02T07:04:55.457Z,89.86
2018-01-02T07:05:55.472Z,90.14
2018-01-02T07:06:55.483Z,89.76
2018-01-02T07:07:55.499Z,90.23
2018-01-02T07:08:55.513Z,90.61
2018-01-02T07:09:55.529Z,90.85
2018-01-02T07:10:55.546Z,91.52
2018-01-02T07:11:55.558Z,91.61
2018-01-02T07:12:55.572Z,91.14
2018-01-02T07:13:55.585Z,90.71
2018-01-02T07:14:55.603Z,91.04
2018-01-02T07:15:55.613Z,92.18
2018-01-02T07:16:55.632Z,91.89
2018-01-02T07:17:55.644Z,92.18
2018-01-02T07:18:55.663Z,92.09
2018-01-02T07:19:55.675Z,91.89
2018-01-02T07:20:55.690Z,91.71
2018-01-02T07:21:55.702Z,90.95
2018-01-02T07:22:55.718Z,91.42
2018-01-02T07:23:55.732Z,91.80
2018-01-02T07:24:55.747Z,91.42
2018-01-02T07:25:55.761Z,91.24
2018-01-02T07:26:55.776Z,90.80
2018-01-02T07:27:55.794Z,90.90
2018-01-02T07:28:55.804Z,90.80
2018-01-02T07:29:55.820Z,90.80
2018-01-02T07:30:55.835Z,91.09
2018-01-02T07:31:55.848Z,90.61
2018-01-02T07:32:55.863Z,91.19
2018-01-02T07:33:55.931Z,91.19
2018-01-02T07:34:55.895Z,91.38
2018-01-02T07:35:55.911Z,90.80
2018-01-02T07:36:55.922Z,91.38
2018-01-02T07:37:55.934Z,90.90
2018-01-02T07:38:55.949Z,90.90
2018-01-02T07:39:55.963Z,90.71
2018-01-02T07:40:55.977Z,91.09
2018-01-02T07:41:55.996Z,91.19
2018-01-02T07:42:56.009Z,90.99
2018-01-02T07:43:56.026Z,91.47
2018-01-02T07:44:56.039Z,90.90
2018-01-02T07:45:56.055Z,91.19
2018-01-02T07:46:56.064Z,91.56
2018-01-02T07:47:56.081Z,90.95
2018-01-02T07:48:56.100Z,90.71
2018-01-02T07:49:56.117Z,90.66
2018-01-02T07:50:56.126Z,90.85
2018-01-02T07:51:56.141Z,90.90
2018-01-02T07:52:56.154Z,90.71
2018-01-02T07:53:56.172Z,90.33
2018-01-02T07:54:56.184Z,89.76
2018-01-02T07:55:56.202Z,90.61
2018-01-02T07:56:56.213Z,90.42
2018-01-02T07:57:56.227Z,89.95
2018-01-02T07:58:56.243Z,89.86
2018-01-02T07:59:56.256Z,90.14
2018-01-02T08:00:56.271Z,90.33
2018-01-02T08:01:56.286Z,90.33
2018-01-02T08:02:56.301Z,90.90
2018-01-02T08:03:56.319Z,90.14
2018-01-02T08:04:56.329Z,91.33
2018-01-02T08:05:56.341Z,91.38
2018-01-02T08:06:56.359Z,91.47
2018-01-02T08:07:56.372Z,91.38
2018-01-02T08:08:56.387Z,91.66
2018-01-02T08:09:56.406Z,92.18
2018-01-02T08:10:56.420Z,91.85
2018-01-02T08:11:56.430Z,91.28
2018-01-02T08:12:56.445Z,91.66
2018-01-02T08:13:56.457Z,91.28
2018-01-02T08:14:56.475Z,92.04
2018-01-02T08:15:56.492Z,91.75
2018-01-02T08:16:56.504Z,90.90
2018-01-02T08:17:56.516Z,91.19
2018-01-02T08:18:56.532Z,90.90
2018-01-02T08:19:56.562Z,91.28
2018-01-02T08:20:56.560Z,91.56
2018-01-02T08:21:56.574Z,91.19
2018-01-02T08:22:56.591Z,90.61
2018-01-02T08:23:56.604Z,90.14
2018-01-02T08:24:56.617Z,90.52
2018-01-02T08:25:56.632Z,90.71
2018-01-02T08:26:56.648Z,90.23
2018-01-02T08:27:56.664Z,91.28
2018-01-02T08:28:56.679Z,90.71
2018-01-02T08:29:56.689Z,90.33
2018-01-02T08:30:56.708Z,91.28
2018-01-02T08:31:56.721Z,91.66
2018-01-02T08:32:56.734Z,91.38
2018-01-02T08:33:56.750Z,92.23
2018-01-02T08:34:56.766Z,92.13
2018-01-02T08:35:56.781Z,91.19
2018-01-02T08:36:56.798Z,90.90
2018-01-02T08:37:56.808Z,91.19
2018-01-02T08:38:56.823Z,91.47
2018-01-02T08:39:56.836Z,92.13
2018-01-02T08:40:56.861Z,91.94
2018-01-02T08:41:56.869Z,91.38
2018-01-02T08:42:56.881Z,91.38
2018-01-02T08:43:56.897Z,91.28
2018-01-02T08:44:56.912Z,90.14
2018-01-02T08:45:56.926Z,90.23
2018-01-02T08:46:56.939Z,90.61
2018-01-02T08:47:56.957Z,90.14
2018-01-02T08:48:56.970Z,90.61
2018-01-02T08:49:56.988Z,90.23
2018-01-02T08:50:57.001Z,90.52
2018-01-02T08:51:57.016Z,91.19
2018-01-02T08:52:57.028Z,90.37
2018-01-02T08:53:57.046Z,89.80
2018-01-02T08:54:57.056Z,90.05
2018-01-02T08:55:57.072Z,90.33
2018-01-02T08:56:57.088Z,90.71
2018-01-02T08:57:57.105Z,90.23
2018-01-02T08:58:57.119Z,90.90
2018-01-02T08:59:57.132Z,90.71
2018-01-02T09:00:57.148Z,90.80
2018-01-02T09:01:57.161Z,90.71
2018-01-02T09:02:57.175Z,91.09
2018-01-02T09:03:57.190Z,90.05
2018-01-02T09:04:57.205Z,90.00
2018-01-02T09:05:57.220Z,89.61
2018-01-02T09:06:57.234Z,90.19
2018-01-02T09:07:57.256Z,89.61
2018-01-02T09:08:57.348Z,89.80
2018-01-02T09:09:57.292Z,90.09
2018-01-02T09:10:57.296Z,90.14
2018-01-02T09:11:57.311Z,89.95
2018-01-02T09:12:57.323Z,89.95
2018-01-02T09:13:57.341Z,90.09
2018-01-02T09:14:57.354Z,90.33
2018-01-02T09:15:57.367Z,89.38
2018-01-02T09:16:57.385Z,89.42
2018-01-02T09:17:57.398Z,89.33
2018-01-02T09:18:57.413Z,89.33
2018-01-02T09:19:57.427Z,89.33
2018-01-02T09:20:57.442Z,89.04
2018-01-02T09:21:57.458Z,88.38
2018-01-02T09:22:57.473Z,88.85
2018-01-02T09:23:57.486Z,89.28
2018-01-02T09:24:57.502Z,89.95
2018-01-02T09:25:57.518Z,89.09
2018-01-02T09:26:57.531Z,89.86
2018-01-02T09:27:57.546Z,89.14
2018-01-02T09:28:57.566Z,88.95
2018-01-02T09:29:57.577Z,88.76
2018-01-02T09:30:57.593Z,88.57
2018-01-02T09:31:57.607Z,88.09
2018-01-02T09:32:57.622Z,88.19
2018-01-02T09:33:57.635Z,87.52
2018-01-02T09:34:57.654Z,88.47
2018-01-02T09:35:57.665Z,88.09
2018-01-02T09:36:57.681Z,87.57
2018-01-02T09:37:57.694Z,87.57
2018-01-02T09:38:57.716Z,86.61
2018-01-02T09:39:57.723Z,87.19
2018-01-02T09:40:57.739Z,87.14
2018-01-02T09:41:57.754Z,87.71
2018-01-02T09:42:57.772Z,88.28
2018-01-02T09:43:57.785Z,87.62
2018-01-02T09:44:57.801Z,87.62
2018-01-02T09:45:57.817Z,87.52
2018-01-02T09:46:57.836Z,87.43
2018-01-02T09:47:57.846Z,86.99
2018-01-02T09:48:57.860Z,87.09
2018-01-02T09:49:57.876Z,86.52
2018-01-02T09:50:57.894Z,87.05
2018-01-02T09:51:57.909Z,87.14
2018-01-02T09:52:57.923Z,86.95
2018-01-02T09:53:57.935Z,87.09
2018-01-02T09:54:57.953Z,87.24
2018-01-02T09:55:57.969Z,88.00
2018-01-02T09:56:57.983Z,88.57
2018-01-02T09:57:57.998Z,87.43
2018-01-02T09:58:58.012Z,87.62
2018-01-02T09:59:58.031Z,87.34
2018-01-02T10:00:58.043Z,87.34
2018-01-02T10:01:58.057Z,88.28
2018-01-02T10:02:58.073Z,87.81
2018-01-02T10:03:58.090Z,88.09
2018-01-02T10:04:58.104Z,88.23
2018-01-02T10:05:58.118Z,87.66
2018-01-02T10:06:58.136Z,86.33
2018-01-02T10:07:58.149Z,87.57
2018-01-02T10:08:58.171Z,88.42
2018-01-02T10:09:58.349Z,87.57
2018-01-02T10:10:58.197Z,86.90
2018-01-02T10:11:58.210Z,87.09
2018-01-02T10:12:58.224Z,86.43
2018-01-02T10:13:58.243Z,85.86
2018-01-02T10:14:58.256Z,86.24
2018-01-02T10:15:58.272Z,86.43
2018-01-02T10:16:58.290Z,86.61
2018-01-02T10:17:58.303Z,86.90
2018-01-02T10:18:58.316Z,87.09
2018-01-02T10:19:58.331Z,87.19
2018-01-02T10:20:58.378Z,86.61
2018-01-02T10:21:58.366Z,86.71
2018-01-02T10:22:58.381Z,86.80
2018-01-02T10:23:58.395Z,85.95
2018-01-02T10:24:58.413Z,85.66
2018-01-02T10:25:58.425Z,85.80
2018-01-02T10:26:58.442Z,85.76
2018-01-02T10:27:58.462Z,85.57
2018-01-02T10:28:58.472Z,85.86
2018-01-02T10:29:58.487Z,85.57
2018-01-02T10:30:58.501Z,85.86
2018-01-02T10:31:58.517Z,86.43
2018-01-02T10:32:58.538Z,85.57
2018-01-02T10:33:58.547Z,85.66
2018-01-02T10:34:58.611Z,85.52
2018-01-02T10:35:58.580Z,84.66
2018-01-02T10:36:58.594Z,85.38
2018-01-02T10:37:58.606Z,86.80
2018-01-02T10:38:58.625Z,87.38
2018-01-02T10:39:58.641Z,86.43
2018-01-02T10:40:58.654Z,86.71
2018-01-02T10:41:58.673Z,86.80
2018-01-02T10:42:58.690Z,86.14
2018-01-02T10:43:58.704Z,85.95
2018-01-02T10:44:58.719Z,86.14
2018-01-02T10:45:58.732Z,86.33
2018-01-02T10:46:58.751Z,86.52
2018-01-02T10:47:58.763Z,86.24
2018-01-02T10:48:58.782Z,85.86
2018-01-02T10:49:58.795Z,85.52
2018-01-02T10:50:58.867Z,85.14
2018-01-02T10:51:58.829Z,84.95
2018-01-02T10:52:58.843Z,84.85
2018-01-02T10:53:58.856Z,84.38
2018-01-02T10:54:58.874Z,84.28
2018-01-02T10:55:58.891Z,84.47
2018-01-02T10:56:58.906Z,84.56
2018-01-02T10:57:58.930Z,85.47
2018-01-02T10:58:58.933Z,85.47
2018-01-02T10:59:58.949Z,85.00
2018-01-02T11:00:58.964Z,85.24
2018-01-02T11:01:58.981Z,85.95
2018-01-02T11:02:58.997Z,85.76
2018-01-02T11:03:59.013Z,85.76
2018-01-02T11:04:59.030Z,85.47
2018-01-02T11:05:59.043Z,85.57
2018-01-02T11:06:59.060Z,86.14
2018-01-02T11:07:59.074Z,85.86
2018-01-02T11:08:59.090Z,85.76
2018-01-02T11:09:59.103Z,85.86
2018-01-02T11:10:59.130Z,85.42
2018-01-02T11:11:59.135Z,85.38
2018-01-02T11:12:59.152Z,86.05
2018-01-02T11:13:59.165Z,85.95
2018-01-02T11:14:59.181Z,86.24
2018-01-02T11:15:59.196Z,85.95
2018-01-02T11:16:59.215Z,85.95
2018-01-02T11:17:59.228Z,86.80
2018-01-02T11:18:59.244Z,86.99
2018-01-02T11:19:59.257Z,86.52
2018-01-02T11:20:59.275Z,86.99
2018-01-02T11:21:59.289Z,87.76
2018-01-02T11:22:59.305Z,87.66
2018-01-02T11:23:59.330Z,87.19
2018-01-02T11:24:59.336Z,87.19
2018-01-02T11:25:59.351Z,86.90
2018-01-02T11:26:59.366Z,87.09
2018-01-02T11:27:59.383Z,86.90
2018-01-02T11:28:59.400Z,87.28
2018-01-02T11:29:59.411Z,86.99
2018-01-02T11:30:59.427Z,86.90
2018-01-02T11:31:59.444Z,86.61
2018-01-02T11:32:59.461Z,86.57
2018-01-02T11:33:59.476Z,85.33
2018-01-02T11:34:59.504Z,85.42
2018-01-02T11:35:59.510Z,85.71
2018-01-02T11:36:59.525Z,85.33
2018-01-02T11:37:59.537Z,85.57
2018-01-02T11:38:59.553Z,85.10
2018-01-02T11:39:59.568Z,85.38
2018-01-02T11:40:59.586Z,85.76
2018-01-02T11:41:59.597Z,85.61
2018-01-02T11:42:59.626Z,85.42
2018-01-02T11:43:59.632Z,85.42
2018-01-02T11:44:59.649Z,85.10
2018-01-02T11:45:59.664Z,85.66
2018-01-02T11:46:59.678Z,85.42
2018-01-02T11:47:59.828Z,85.19
2018-01-02T11:48:59.710Z,86.24
2018-01-02T11:49:59.723Z,87.09
2018-01-02T11:50:59.739Z,86.24
2018-01-02T11:51:59.756Z,86.24
2018-01-02T11:52:59.770Z,86.80
2018-01-02T11:53:59.786Z,86.90
2018-01-02T11:54:59.803Z,86.05
2018-01-02T11:55:59.819Z,85.71
2018-01-02T11:56:59.833Z,84.28
2018-01-02T11:57:59.852Z,85.04
2018-01-02T11:58:59.866Z,84.76
2018-01-02T11:59:59.889Z,84.00
2018-01-02T12:00:59.898Z,84.00
2018-01-02T12:01:59.911Z,84.56
2018-01-02T12:02:59.930Z,84.66
2018-01-02T12:03:59.950Z,84.91
2018-01-02T12:04:59.962Z,85.57
2018-01-02T12:05:59.976Z,85.33
2018-01-02T12:06:59.997Z,85.90
2018-01-02T12:08:00.015Z,85.14
2018-01-02T12:09:00.024Z,84.85
2018-01-02T12:10:00.052Z,85.71
2018-01-02T12:11:00.059Z,85.52
2018-01-02T12:12:00.071Z,85.14
2018-01-02T12:13:00.121Z,84.66
2018-01-02T12:14:00.103Z,84.28
2018-01-02T12:15:00.120Z,84.52
2018-01-02T12:16:00.135Z,84.47
2018-01-02T12:17:00.154Z,85.19
2018-01-02T12:18:00.167Z,85.24
2018-01-02T12:19:00.182Z,84.56
2018-01-02T12:20:00.199Z,84.47
2018-01-02T12:21:00.215Z,84.28
2018-01-02T12:22:00.227Z,84.56
2018-01-02T12:23:00.244Z,84.56
2018-01-02T12:24:00.261Z,85.38
2018-01-02T12:25:00.277Z,85.71
2018-01-02T12:26:00.292Z,84.95
2018-01-02T12:27:00.308Z,84.95
2018-01-02T12:28:00.324Z,85.00
2018-01-02T12:29:00.338Z,85.28
2018-01-02T12:30:00.353Z,85.76
2018-01-02T12:31:00.408Z,86.24
2018-01-02T12:32:00.387Z,86.61
2018-01-02T12:33:00.405Z,86.99
2018-01-02T12:34:00.419Z,86.76
2018-01-02T12:35:00.435Z,87.38
2018-01-02T12:36:00.448Z,87.28
2018-01-02T12:37:00.465Z,87.90
2018-01-02T12:38:00.478Z,88.19
2018-01-02T12:39:00.494Z,88.09
2018-01-02T12:40:00.562Z,87.81
2018-01-02T12:41:00.529Z,87.90
2018-01-02T12:42:00.541Z,87.05
2018-01-02T12:43:00.556Z,86.86
2018-01-02T12:44:00.575Z,87.05
2018-01-02T12:45:00.588Z,86.67
2018-01-02T12:46:00.601Z,86.19
2018-01-02T12:47:00.617Z,86.38
2018-01-02T12:48:00.633Z,85.53
2018-01-02T12:49:00.652Z,85.43
2018-01-02T12:50:00.665Z,85.53
2018-01-02T12:51:00.680Z,85.72
2018-01-02T12:52:00.692Z,85.53
2018-01-02T12:53:00.708Z,86.19